sensor_id;sensor_type;location;lat;lon;timestamp;temperature;humidity
48806;DHT22;34625;47.176;27.548;2023-05-10T00:01:14;22.60;56.60
48806;DHT22;34625;47.176;27.548;2023-05-10T00:03:40;22.70;56.70
48806;DHT22;34625;47.176;27.548;2023-05-10T00:06:06;22.60;56.50
48806;DHT22;34625;47.176;27.548;2023-05-10T00:08:32;22.60;56.40
48806;DHT22;34625;47.176;27.548;2023-05-10T00:10:58;22.70;56.50
48806;DHT22;34625;47.176;27.548;2023-05-10T00:13:24;22.60;56.40
48806;DHT22;34625;47.176;27.548;2023-05-10T00:15:50;22.70;56.50
48806;DHT22;34625;47.176;27.548;2023-05-10T00:18:16;22.60;56.40
48806;DHT22;34625;47.176;27.548;2023-05-10T00:20:42;22.50;56.40
48806;DHT22;34625;47.176;27.548;2023-05-10T00:23:08;22.60;56.40
48806;DHT22;34625;47.176;27.548;2023-05-10T00:25:34;22.70;56.40
48806;DHT22;34625;47.176;27.548;2023-05-10T00:28:00;22.60;56.20
48806;DHT22;34625;47.176;27.548;2023-05-10T00:30:27;22.60;56.20
48806;DHT22;34625;47.176;27.548;2023-05-10T00:32:54;22.50;56.30
48806;DHT22;34625;47.176;27.548;2023-05-10T00:35:20;22.60;56.30
48806;DHT22;34625;47.176;27.548;2023-05-10T00:37:47;22.50;56.30
48806;DHT22;34625;47.176;27.548;2023-05-10T00:40:14;22.40;56.20
48806;DHT22;34625;47.176;27.548;2023-05-10T00:42:43;22.50;56.40
48806;DHT22;34625;47.176;27.548;2023-05-10T00:45:09;22.40;56.40
48806;DHT22;34625;47.176;27.548;2023-05-10T00:47:35;22.50;56.40
48806;DHT22;34625;47.176;27.548;2023-05-10T00:50:02;22.40;56.30
48806;DHT22;34625;47.176;27.548;2023-05-10T00:52:28;22.30;56.30
48806;DHT22;34625;47.176;27.548;2023-05-10T00:54:55;22.40;56.40
48806;DHT22;34625;47.176;27.548;2023-05-10T00:57:21;22.40;56.50
48806;DHT22;34625;47.176;27.548;2023-05-10T00:59:48;22.30;56.40
48806;DHT22;34625;47.176;27.548;2023-05-10T01:02:14;22.40;56.30
48806;DHT22;34625;47.176;27.548;2023-05-10T01:04:40;22.40;56.20
48806;DHT22;34625;47.176;27.548;2023-05-10T01:07:06;22.40;56.30
48806;DHT22;34625;47.176;27.548;2023-05-10T01:09:33;22.30;56.20
48806;DHT22;34625;47.176;27.548;2023-05-10T01:11:59;22.40;56.20
48806;DHT22;34625;47.176;27.548;2023-05-10T01:14:28;22.40;56.20
48806;DHT22;34625;47.176;27.548;2023-05-10T01:16:55;22.40;56.10
48806;DHT22;34625;47.176;27.548;2023-05-10T01:19:29;22.40;56.10
48806;DHT22;34625;47.176;27.548;2023-05-10T01:32:44;22.40;56.00
48806;DHT22;34625;47.176;27.548;2023-05-10T01:35:37;22.30;56.10
48806;DHT22;34625;47.176;27.548;2023-05-10T01:38:17;22.50;56.10
48806;DHT22;34625;47.176;27.548;2023-05-10T01:40:54;22.30;56.10
48806;DHT22;34625;47.176;27.548;2023-05-10T01:43:28;22.30;56.10
48806;DHT22;34625;47.176;27.548;2023-05-10T01:46:10;22.20;56.00
48806;DHT22;34625;47.176;27.548;2023-05-10T01:48:47;22.30;56.20
48806;DHT22;34625;47.176;27.548;2023-05-10T01:51:19;22.30;56.20
48806;DHT22;34625;47.176;27.548;2023-05-10T01:53:48;22.10;56.00
48806;DHT22;34625;47.176;27.548;2023-05-10T01:56:16;22.10;56.10
48806;DHT22;34625;47.176;27.548;2023-05-10T01:58:45;22.10;56.10
48806;DHT22;34625;47.176;27.548;2023-05-10T02:01:13;22.10;56.10
48806;DHT22;34625;47.176;27.548;2023-05-10T02:03:41;22.10;56.10
48806;DHT22;34625;47.176;27.548;2023-05-10T02:06:09;22.20;56.00
48806;DHT22;34625;47.176;27.548;2023-05-10T02:08:36;22.20;56.00
48806;DHT22;34625;47.176;27.548;2023-05-10T02:11:04;22.10;55.90
48806;DHT22;34625;47.176;27.548;2023-05-10T02:13:33;22.20;55.90
48806;DHT22;34625;47.176;27.548;2023-05-10T02:16:02;22.20;55.90
48806;DHT22;34625;47.176;27.548;2023-05-10T02:18:29;22.20;55.90
48806;DHT22;34625;47.176;27.548;2023-05-10T02:20:58;22.20;55.80
48806;DHT22;34625;47.176;27.548;2023-05-10T02:23:25;22.20;55.80
48806;DHT22;34625;47.176;27.548;2023-05-10T02:25:52;22.20;55.70
48806;DHT22;34625;47.176;27.548;2023-05-10T02:28:22;22.20;55.70
48806;DHT22;34625;47.176;27.548;2023-05-10T02:30:49;22.20;55.70
48806;DHT22;34625;47.176;27.548;2023-05-10T02:33:17;22.30;55.90
48806;DHT22;34625;47.176;27.548;2023-05-10T02:35:46;22.10;55.80
48806;DHT22;34625;47.176;27.548;2023-05-10T02:38:13;22.00;55.80
48806;DHT22;34625;47.176;27.548;2023-05-10T02:40:41;22.10;55.80
48806;DHT22;34625;47.176;27.548;2023-05-10T02:43:12;22.10;55.90
48806;DHT22;34625;47.176;27.548;2023-05-10T02:45:40;22.00;55.80
48806;DHT22;34625;47.176;27.548;2023-05-10T02:48:09;22.00;55.80
48806;DHT22;34625;47.176;27.548;2023-05-10T02:50:36;22.00;55.80
48806;DHT22;34625;47.176;27.548;2023-05-10T02:53:15;22.00;55.80
48806;DHT22;34625;47.176;27.548;2023-05-10T02:55:45;22.00;55.80
48806;DHT22;34625;47.176;27.548;2023-05-10T02:58:14;21.90;56.00
48806;DHT22;34625;47.176;27.548;2023-05-10T03:00:41;22.00;56.10
48806;DHT22;34625;47.176;27.548;2023-05-10T03:03:07;22.00;56.00
48806;DHT22;34625;47.176;27.548;2023-05-10T03:05:33;21.90;55.90
48806;DHT22;34625;47.176;27.548;2023-05-10T03:08:02;21.90;55.90
48806;DHT22;34625;47.176;27.548;2023-05-10T03:10:31;22.10;55.80
48806;DHT22;34625;47.176;27.548;2023-05-10T03:13:28;22.00;55.70
48806;DHT22;34625;47.176;27.548;2023-05-10T03:15:59;22.10;55.70
48806;DHT22;34625;47.176;27.548;2023-05-10T03:21:08;21.90;55.60
48806;DHT22;34625;47.176;27.548;2023-05-10T03:23:44;22.10;55.60
48806;DHT22;34625;47.176;27.548;2023-05-10T03:26:18;22.00;55.30
48806;DHT22;34625;47.176;27.548;2023-05-10T03:28:47;22.10;55.40
48806;DHT22;34625;47.176;27.548;2023-05-10T03:31:14;22.00;55.30
48806;DHT22;34625;47.176;27.548;2023-05-10T03:33:51;22.00;55.30
48806;DHT22;34625;47.176;27.548;2023-05-10T03:36:22;22.10;55.30
48806;DHT22;34625;47.176;27.548;2023-05-10T03:38:48;22.10;55.30
48806;DHT22;34625;47.176;27.548;2023-05-10T03:41:15;22.10;55.10
48806;DHT22;34625;47.176;27.548;2023-05-10T03:43:41;22.10;55.10
48806;DHT22;34625;47.176;27.548;2023-05-10T03:46:07;22.20;55.20
48806;DHT22;34625;47.176;27.548;2023-05-10T03:48:34;22.00;55.10
48806;DHT22;34625;47.176;27.548;2023-05-10T03:51:00;22.00;55.10
48806;DHT22;34625;47.176;27.548;2023-05-10T03:53:26;22.10;55.20
48806;DHT22;34625;47.176;27.548;2023-05-10T03:55:52;22.00;55.10
48806;DHT22;34625;47.176;27.548;2023-05-10T03:58:18;22.10;55.40
48806;DHT22;34625;47.176;27.548;2023-05-10T04:00:45;22.10;55.10
48806;DHT22;34625;47.176;27.548;2023-05-10T04:03:12;22.10;54.90
48806;DHT22;34625;47.176;27.548;2023-05-10T04:05:38;22.20;54.70
48806;DHT22;34625;47.176;27.548;2023-05-10T04:08:05;22.20;54.50
48806;DHT22;34625;47.176;27.548;2023-05-10T04:10:32;22.40;54.40
48806;DHT22;34625;47.176;27.548;2023-05-10T04:12:58;22.50;54.50
48806;DHT22;34625;47.176;27.548;2023-05-10T04:15:24;22.60;54.60
48806;DHT22;34625;47.176;27.548;2023-05-10T04:17:50;22.50;56.10
48806;DHT22;34625;47.176;27.548;2023-05-10T04:20:16;22.80;58.70
48806;DHT22;34625;47.176;27.548;2023-05-10T04:22:42;23.00;60.80
48806;DHT22;34625;47.176;27.548;2023-05-10T04:25:09;23.20;58.40
48806;DHT22;34625;47.176;27.548;2023-05-10T04:27:35;23.30;56.10
48806;DHT22;34625;47.176;27.548;2023-05-10T04:30:02;23.20;54.30
48806;DHT22;34625;47.176;27.548;2023-05-10T04:32:30;23.30;53.10
48806;DHT22;34625;47.176;27.548;2023-05-10T04:34:57;23.10;52.30
48806;DHT22;34625;47.176;27.548;2023-05-10T04:37:23;23.00;52.30
48806;DHT22;34625;47.176;27.548;2023-05-10T04:39:49;22.90;52.40
48806;DHT22;34625;47.176;27.548;2023-05-10T04:42:15;22.90;52.50
48806;DHT22;34625;47.176;27.548;2023-05-10T04:44:41;22.80;53.00
48806;DHT22;34625;47.176;27.548;2023-05-10T04:47:07;22.80;54.00
48806;DHT22;34625;47.176;27.548;2023-05-10T04:49:33;22.70;54.50
48806;DHT22;34625;47.176;27.548;2023-05-10T04:51:59;22.70;55.10
48806;DHT22;34625;47.176;27.548;2023-05-10T04:54:25;22.70;53.20
48806;DHT22;34625;47.176;27.548;2023-05-10T04:56:51;22.60;51.10
48806;DHT22;34625;47.176;27.548;2023-05-10T04:59:17;22.70;50.50
48806;DHT22;34625;47.176;27.548;2023-05-10T05:01:43;22.70;49.60
48806;DHT22;34625;47.176;27.548;2023-05-10T05:04:09;22.70;48.90
48806;DHT22;34625;47.176;27.548;2023-05-10T05:06:35;22.80;49.70
48806;DHT22;34625;47.176;27.548;2023-05-10T05:09:01;22.80;49.80
48806;DHT22;34625;47.176;27.548;2023-05-10T05:11:27;22.80;51.70
48806;DHT22;34625;47.176;27.548;2023-05-10T05:13:53;23.00;53.40
48806;DHT22;34625;47.176;27.548;2023-05-10T05:16:19;22.90;51.80
48806;DHT22;34625;47.176;27.548;2023-05-10T05:18:45;22.90;50.60
48806;DHT22;34625;47.176;27.548;2023-05-10T05:21:16;22.90;52.70
48806;DHT22;34625;47.176;27.548;2023-05-10T05:23:43;22.70;50.80
48806;DHT22;34625;47.176;27.548;2023-05-10T05:26:09;23.00;51.40
48806;DHT22;34625;47.176;27.548;2023-05-10T05:28:36;23.00;52.50
48806;DHT22;34625;47.176;27.548;2023-05-10T05:31:08;23.00;52.40
48806;DHT22;34625;47.176;27.548;2023-05-10T05:33:34;23.00;51.20
48806;DHT22;34625;47.176;27.548;2023-05-10T05:36:02;23.00;50.20
48806;DHT22;34625;47.176;27.548;2023-05-10T05:38:28;22.90;50.10
48806;DHT22;34625;47.176;27.548;2023-05-10T05:40:54;22.90;49.10
48806;DHT22;34625;47.176;27.548;2023-05-10T05:43:20;23.00;55.30
48806;DHT22;34625;47.176;27.548;2023-05-10T05:45:46;23.10;55.70
48806;DHT22;34625;47.176;27.548;2023-05-10T05:48:12;23.30;55.70
48806;DHT22;34625;47.176;27.548;2023-05-10T05:50:38;23.20;55.40
48806;DHT22;34625;47.176;27.548;2023-05-10T05:53:04;23.20;56.10
48806;DHT22;34625;47.176;27.548;2023-05-10T05:55:30;23.40;57.40
48806;DHT22;34625;47.176;27.548;2023-05-10T05:57:57;23.30;57.50
48806;DHT22;34625;47.176;27.548;2023-05-10T06:00:24;23.40;57.10
48806;DHT22;34625;47.176;27.548;2023-05-10T06:02:50;23.40;56.90
48806;DHT22;34625;47.176;27.548;2023-05-10T06:05:16;23.50;56.50
48806;DHT22;34625;47.176;27.548;2023-05-10T06:07:42;23.50;55.60
48806;DHT22;34625;47.176;27.548;2023-05-10T06:10:09;23.60;54.80
48806;DHT22;34625;47.176;27.548;2023-05-10T06:12:35;23.60;53.90
48806;DHT22;34625;47.176;27.548;2023-05-10T06:15:02;23.60;53.50
48806;DHT22;34625;47.176;27.548;2023-05-10T06:17:29;23.60;52.90
48806;DHT22;34625;47.176;27.548;2023-05-10T06:19:56;23.60;52.70
48806;DHT22;34625;47.176;27.548;2023-05-10T06:22:22;23.70;52.50
48806;DHT22;34625;47.176;27.548;2023-05-10T06:24:49;23.60;52.30
48806;DHT22;34625;47.176;27.548;2023-05-10T06:27:15;23.80;52.20
48806;DHT22;34625;47.176;27.548;2023-05-10T06:29:41;23.70;51.60
48806;DHT22;34625;47.176;27.548;2023-05-10T06:32:07;23.70;50.80
48806;DHT22;34625;47.176;27.548;2023-05-10T06:34:33;23.60;50.80
48806;DHT22;34625;47.176;27.548;2023-05-10T06:37:00;23.60;52.00
48806;DHT22;34625;47.176;27.548;2023-05-10T06:39:26;23.70;52.30
48806;DHT22;34625;47.176;27.548;2023-05-10T06:41:52;23.70;52.50
48806;DHT22;34625;47.176;27.548;2023-05-10T06:44:18;23.70;52.60
48806;DHT22;34625;47.176;27.548;2023-05-10T06:46:44;23.70;52.60
48806;DHT22;34625;47.176;27.548;2023-05-10T06:49:10;23.70;52.60
48806;DHT22;34625;47.176;27.548;2023-05-10T06:51:36;23.80;52.60
48806;DHT22;34625;47.176;27.548;2023-05-10T06:54:02;23.90;52.60
48806;DHT22;34625;47.176;27.548;2023-05-10T06:56:28;24.00;52.50
48806;DHT22;34625;47.176;27.548;2023-05-10T06:58:54;24.00;52.50
48806;DHT22;34625;47.176;27.548;2023-05-10T07:01:21;23.80;52.40
48806;DHT22;34625;47.176;27.548;2023-05-10T07:03:47;23.80;52.20
48806;DHT22;34625;47.176;27.548;2023-05-10T07:06:13;23.90;52.20
48806;DHT22;34625;47.176;27.548;2023-05-10T07:08:39;23.90;52.10
48806;DHT22;34625;47.176;27.548;2023-05-10T07:11:06;24.00;52.00
48806;DHT22;34625;47.176;27.548;2023-05-10T07:13:38;23.90;52.10
48806;DHT22;34625;47.176;27.548;2023-05-10T07:16:07;23.90;52.60
48806;DHT22;34625;47.176;27.548;2023-05-10T07:18:33;23.90;53.10
48806;DHT22;34625;47.176;27.548;2023-05-10T07:20:59;23.90;53.30
48806;DHT22;34625;47.176;27.548;2023-05-10T07:23:25;23.90;54.00
48806;DHT22;34625;47.176;27.548;2023-05-10T07:25:52;24.00;54.40
48806;DHT22;34625;47.176;27.548;2023-05-10T07:28:19;24.00;54.70
48806;DHT22;34625;47.176;27.548;2023-05-10T07:30:46;24.00;54.50
48806;DHT22;34625;47.176;27.548;2023-05-10T07:33:13;24.00;54.40
48806;DHT22;34625;47.176;27.548;2023-05-10T07:35:39;24.10;53.60
48806;DHT22;34625;47.176;27.548;2023-05-10T07:38:05;24.10;53.10
48806;DHT22;34625;47.176;27.548;2023-05-10T07:40:31;24.10;53.00
48806;DHT22;34625;47.176;27.548;2023-05-10T07:42:57;24.10;53.40
48806;DHT22;34625;47.176;27.548;2023-05-10T07:45:24;24.40;54.40
48806;DHT22;34625;47.176;27.548;2023-05-10T07:47:50;24.60;53.60
48806;DHT22;34625;47.176;27.548;2023-05-10T07:50:16;24.70;52.70
48806;DHT22;34625;47.176;27.548;2023-05-10T07:52:42;24.70;53.60
48806;DHT22;34625;47.176;27.548;2023-05-10T07:55:08;24.70;48.80
48806;DHT22;34625;47.176;27.548;2023-05-10T07:57:35;24.70;48.80
48806;DHT22;34625;47.176;27.548;2023-05-10T08:00:01;24.60;48.40
48806;DHT22;34625;47.176;27.548;2023-05-10T08:02:27;24.40;48.90
48806;DHT22;34625;47.176;27.548;2023-05-10T08:04:53;24.50;45.10
48806;DHT22;34625;47.176;27.548;2023-05-10T08:07:19;24.40;43.10
48806;DHT22;34625;47.176;27.548;2023-05-10T08:09:46;24.40;47.00
48806;DHT22;34625;47.176;27.548;2023-05-10T08:12:12;24.50;49.10
48806;DHT22;34625;47.176;27.548;2023-05-10T08:14:38;24.40;49.00
48806;DHT22;34625;47.176;27.548;2023-05-10T08:17:04;24.50;50.60
48806;DHT22;34625;47.176;27.548;2023-05-10T08:19:30;24.30;50.90
48806;DHT22;34625;47.176;27.548;2023-05-10T08:21:56;24.40;51.10
48806;DHT22;34625;47.176;27.548;2023-05-10T08:24:23;24.40;47.90
48806;DHT22;34625;47.176;27.548;2023-05-10T08:26:49;24.30;50.00
48806;DHT22;34625;47.176;27.548;2023-05-10T08:29:15;24.30;46.30
48806;DHT22;34625;47.176;27.548;2023-05-10T08:31:41;24.20;43.80
48806;DHT22;34625;47.176;27.548;2023-05-10T08:34:07;24.20;49.00
48806;DHT22;34625;47.176;27.548;2023-05-10T08:36:33;24.10;51.10
48806;DHT22;34625;47.176;27.548;2023-05-10T08:38:59;24.20;51.70
48806;DHT22;34625;47.176;27.548;2023-05-10T08:41:25;24.20;51.50
48806;DHT22;34625;47.176;27.548;2023-05-10T08:43:52;24.20;52.30
48806;DHT22;34625;47.176;27.548;2023-05-10T08:46:19;24.20;52.20
48806;DHT22;34625;47.176;27.548;2023-05-10T08:48:48;24.20;48.80
48806;DHT22;34625;47.176;27.548;2023-05-10T08:51:18;24.20;46.70
48806;DHT22;34625;47.176;27.548;2023-05-10T08:53:45;24.20;47.70
48806;DHT22;34625;47.176;27.548;2023-05-10T08:56:12;24.30;47.30
48806;DHT22;34625;47.176;27.548;2023-05-10T08:58:38;24.40;45.00
48806;DHT22;34625;47.176;27.548;2023-05-10T09:01:05;24.40;52.10
48806;DHT22;34625;47.176;27.548;2023-05-10T09:03:31;24.50;52.00
48806;DHT22;34625;47.176;27.548;2023-05-10T09:05:58;24.30;51.30
48806;DHT22;34625;47.176;27.548;2023-05-10T09:08:24;24.50;51.50
48806;DHT22;34625;47.176;27.548;2023-05-10T09:10:51;24.40;51.90
48806;DHT22;34625;47.176;27.548;2023-05-10T09:13:18;24.30;52.50
48806;DHT22;34625;47.176;27.548;2023-05-10T09:15:45;24.40;50.70
48806;DHT22;34625;47.176;27.548;2023-05-10T09:18:12;24.40;52.40
48806;DHT22;34625;47.176;27.548;2023-05-10T09:20:38;24.30;52.10
48806;DHT22;34625;47.176;27.548;2023-05-10T09:23:04;24.40;52.10
48806;DHT22;34625;47.176;27.548;2023-05-10T09:25:31;24.40;51.70
48806;DHT22;34625;47.176;27.548;2023-05-10T09:27:59;24.30;50.90
48806;DHT22;34625;47.176;27.548;2023-05-10T09:30:29;24.40;50.00
48806;DHT22;34625;47.176;27.548;2023-05-10T09:32:58;24.30;48.50
48806;DHT22;34625;47.176;27.548;2023-05-10T09:35:26;24.30;48.30
48806;DHT22;34625;47.176;27.548;2023-05-10T09:37:54;24.30;46.90
48806;DHT22;34625;47.176;27.548;2023-05-10T09:40:22;24.30;46.40
48806;DHT22;34625;47.176;27.548;2023-05-10T09:43:08;24.30;45.40
48806;DHT22;34625;47.176;27.548;2023-05-10T09:45:35;24.20;45.00
48806;DHT22;34625;47.176;27.548;2023-05-10T09:48:02;24.10;42.70
48806;DHT22;34625;47.176;27.548;2023-05-10T09:50:29;24.20;43.20
48806;DHT22;34625;47.176;27.548;2023-05-10T09:55:26;24.20;41.90
48806;DHT22;34625;47.176;27.548;2023-05-10T09:58:03;24.10;42.60
48806;DHT22;34625;47.176;27.548;2023-05-10T10:00:38;24.00;41.60
48806;DHT22;34625;47.176;27.548;2023-05-10T10:03:05;24.10;40.70
48806;DHT22;34625;47.176;27.548;2023-05-10T10:05:35;24.10;41.90
48806;DHT22;34625;47.176;27.548;2023-05-10T10:08:05;24.00;43.00
48806;DHT22;34625;47.176;27.548;2023-05-10T10:10:32;24.00;41.00
48806;DHT22;34625;47.176;27.548;2023-05-10T10:12:59;24.10;42.50
48806;DHT22;34625;47.176;27.548;2023-05-10T10:15:26;24.10;43.00
48806;DHT22;34625;47.176;27.548;2023-05-10T10:17:53;24.20;47.80
48806;DHT22;34625;47.176;27.548;2023-05-10T10:20:20;24.70;49.90
48806;DHT22;34625;47.176;27.548;2023-05-10T10:22:47;25.30;47.30
48806;DHT22;34625;47.176;27.548;2023-05-10T10:25:15;25.10;40.70
48806;DHT22;34625;47.176;27.548;2023-05-10T10:33:13;25.10;47.90
48806;DHT22;34625;47.176;27.548;2023-05-10T10:35:45;25.30;50.50
48806;DHT22;34625;47.176;27.548;2023-05-10T10:38:12;25.20;39.60
48806;DHT22;34625;47.176;27.548;2023-05-10T10:40:38;25.00;47.60
48806;DHT22;34625;47.176;27.548;2023-05-10T10:43:25;25.00;47.40
48806;DHT22;34625;47.176;27.548;2023-05-10T10:48:35;24.80;47.00
48806;DHT22;34625;47.176;27.548;2023-05-10T10:51:02;24.80;48.90
48806;DHT22;34625;47.176;27.548;2023-05-10T10:53:29;24.70;48.80
48806;DHT22;34625;47.176;27.548;2023-05-10T10:56:24;24.80;45.60
48806;DHT22;34625;47.176;27.548;2023-05-10T10:58:51;24.70;48.60
48806;DHT22;34625;47.176;27.548;2023-05-10T11:01:19;24.70;44.80
48806;DHT22;34625;47.176;27.548;2023-05-10T11:06:33;24.60;48.50
48806;DHT22;34625;47.176;27.548;2023-05-10T11:09:05;24.50;49.60
48806;DHT22;34625;47.176;27.548;2023-05-10T11:11:32;24.50;49.40
48806;DHT22;34625;47.176;27.548;2023-05-10T11:14:04;24.40;46.10
48806;DHT22;34625;47.176;27.548;2023-05-10T11:16:43;24.40;43.10
48806;DHT22;34625;47.176;27.548;2023-05-10T11:19:14;24.50;49.50
48806;DHT22;34625;47.176;27.548;2023-05-10T11:21:47;24.50;50.60
48806;DHT22;34625;47.176;27.548;2023-05-10T11:24:16;24.40;50.50
48806;DHT22;34625;47.176;27.548;2023-05-10T11:26:43;24.40;49.00
48806;DHT22;34625;47.176;27.548;2023-05-10T11:29:09;24.40;48.80
48806;DHT22;34625;47.176;27.548;2023-05-10T11:31:35;24.30;50.40
48806;DHT22;34625;47.176;27.548;2023-05-10T11:34:07;24.30;50.70
48806;DHT22;34625;47.176;27.548;2023-05-10T11:36:34;24.30;50.70
48806;DHT22;34625;47.176;27.548;2023-05-10T11:39:01;24.30;51.20
48806;DHT22;34625;47.176;27.548;2023-05-10T11:41:29;24.30;51.40
48806;DHT22;34625;47.176;27.548;2023-05-10T11:43:56;24.20;50.90
48806;DHT22;34625;47.176;27.548;2023-05-10T11:46:25;24.30;51.60
48806;DHT22;34625;47.176;27.548;2023-05-10T11:48:53;24.30;51.10
48806;DHT22;34625;47.176;27.548;2023-05-10T11:51:24;24.20;51.00
48806;DHT22;34625;47.176;27.548;2023-05-10T11:53:53;24.30;51.80
48806;DHT22;34625;47.176;27.548;2023-05-10T11:56:19;24.30;51.80
48806;DHT22;34625;47.176;27.548;2023-05-10T11:58:56;24.30;51.40
48806;DHT22;34625;47.176;27.548;2023-05-10T12:01:25;24.30;51.70
48806;DHT22;34625;47.176;27.548;2023-05-10T12:03:53;24.30;51.70
48806;DHT22;34625;47.176;27.548;2023-05-10T12:06:20;24.20;51.60
48806;DHT22;34625;47.176;27.548;2023-05-10T12:08:47;24.40;51.80
48806;DHT22;34625;47.176;27.548;2023-05-10T12:11:18;24.30;51.70
48806;DHT22;34625;47.176;27.548;2023-05-10T12:13:45;24.20;51.70
48806;DHT22;34625;47.176;27.548;2023-05-10T12:16:20;24.30;52.00
48806;DHT22;34625;47.176;27.548;2023-05-10T12:18:51;24.30;51.90
48806;DHT22;34625;47.176;27.548;2023-05-10T12:21:18;24.30;51.90
48806;DHT22;34625;47.176;27.548;2023-05-10T12:23:53;24.30;52.00
48806;DHT22;34625;47.176;27.548;2023-05-10T12:26:22;24.10;52.00
48806;DHT22;34625;47.176;27.548;2023-05-10T12:28:49;24.10;52.10
48806;DHT22;34625;47.176;27.548;2023-05-10T12:31:15;24.20;52.10
48806;DHT22;34625;47.176;27.548;2023-05-10T12:33:44;24.20;52.00
48806;DHT22;34625;47.176;27.548;2023-05-10T12:36:12;24.10;52.00
48806;DHT22;34625;47.176;27.548;2023-05-10T12:38:40;24.20;51.70
48806;DHT22;34625;47.176;27.548;2023-05-10T12:41:10;24.20;50.50
48806;DHT22;34625;47.176;27.548;2023-05-10T12:43:37;24.30;49.40
48806;DHT22;34625;47.176;27.548;2023-05-10T12:46:10;24.20;48.10
48806;DHT22;34625;47.176;27.548;2023-05-10T12:48:37;24.20;47.50
48806;DHT22;34625;47.176;27.548;2023-05-10T12:51:04;24.20;47.20
48806;DHT22;34625;47.176;27.548;2023-05-10T12:53:31;24.30;47.30
48806;DHT22;34625;47.176;27.548;2023-05-10T12:55:57;24.20;47.10
48806;DHT22;34625;47.176;27.548;2023-05-10T12:58:23;24.20;47.30
48806;DHT22;34625;47.176;27.548;2023-05-10T13:00:50;24.20;47.50
48806;DHT22;34625;47.176;27.548;2023-05-10T13:03:17;24.30;47.60
48806;DHT22;34625;47.176;27.548;2023-05-10T13:05:43;24.20;47.10
48806;DHT22;34625;47.176;27.548;2023-05-10T13:08:09;24.10;47.70
48806;DHT22;34625;47.176;27.548;2023-05-10T13:10:35;24.10;47.90
48806;DHT22;34625;47.176;27.548;2023-05-10T13:13:01;24.00;48.00
48806;DHT22;34625;47.176;27.548;2023-05-10T13:15:28;24.10;48.30
48806;DHT22;34625;47.176;27.548;2023-05-10T13:17:54;24.10;48.60
48806;DHT22;34625;47.176;27.548;2023-05-10T13:20:21;24.10;48.50
48806;DHT22;34625;47.176;27.548;2023-05-10T13:22:47;24.10;48.30
48806;DHT22;34625;47.176;27.548;2023-05-10T13:25:13;24.00;48.30
48806;DHT22;34625;47.176;27.548;2023-05-10T13:27:40;24.00;48.50
48806;DHT22;34625;47.176;27.548;2023-05-10T13:30:07;24.10;48.70
48806;DHT22;34625;47.176;27.548;2023-05-10T13:32:34;24.10;48.80
48806;DHT22;34625;47.176;27.548;2023-05-10T13:35:00;24.10;48.90
48806;DHT22;34625;47.176;27.548;2023-05-10T13:37:26;24.20;48.60
48806;DHT22;34625;47.176;27.548;2023-05-10T13:39:52;24.20;49.10
48806;DHT22;34625;47.176;27.548;2023-05-10T13:42:18;24.30;49.30
48806;DHT22;34625;47.176;27.548;2023-05-10T13:44:44;24.20;49.20
48806;DHT22;34625;47.176;27.548;2023-05-10T13:47:10;24.20;49.30
48806;DHT22;34625;47.176;27.548;2023-05-10T13:49:37;24.10;49.40
48806;DHT22;34625;47.176;27.548;2023-05-10T13:52:03;24.10;49.50
48806;DHT22;34625;47.176;27.548;2023-05-10T13:54:36;24.20;48.60
48806;DHT22;34625;47.176;27.548;2023-05-10T13:57:02;24.10;48.90
48806;DHT22;34625;47.176;27.548;2023-05-10T13:59:29;24.10;49.10
48806;DHT22;34625;47.176;27.548;2023-05-10T14:01:58;24.10;49.10
48806;DHT22;34625;47.176;27.548;2023-05-10T14:04:24;24.10;49.70
48806;DHT22;34625;47.176;27.548;2023-05-10T14:06:50;24.10;50.00
48806;DHT22;34625;47.176;27.548;2023-05-10T14:09:16;24.00;50.40
48806;DHT22;34625;47.176;27.548;2023-05-10T14:11:42;24.10;50.00
48806;DHT22;34625;47.176;27.548;2023-05-10T14:14:10;24.20;50.00
48806;DHT22;34625;47.176;27.548;2023-05-10T14:16:37;24.00;49.10
48806;DHT22;34625;47.176;27.548;2023-05-10T14:19:03;24.00;48.70
48806;DHT22;34625;47.176;27.548;2023-05-10T14:21:29;24.10;48.20
48806;DHT22;34625;47.176;27.548;2023-05-10T14:23:57;24.00;47.40
48806;DHT22;34625;47.176;27.548;2023-05-10T14:26:23;24.00;45.10
48806;DHT22;34625;47.176;27.548;2023-05-10T14:28:49;24.10;46.40
48806;DHT22;34625;47.176;27.548;2023-05-10T14:31:15;24.00;46.00
48806;DHT22;34625;47.176;27.548;2023-05-10T14:33:42;24.10;45.40
48806;DHT22;34625;47.176;27.548;2023-05-10T14:36:08;24.00;44.90
48806;DHT22;34625;47.176;27.548;2023-05-10T14:38:34;24.00;45.00
48806;DHT22;34625;47.176;27.548;2023-05-10T14:41:00;24.10;45.10
48806;DHT22;34625;47.176;27.548;2023-05-10T14:43:26;24.00;44.50
48806;DHT22;34625;47.176;27.548;2023-05-10T14:45:53;24.00;44.10
48806;DHT22;34625;47.176;27.548;2023-05-10T14:48:19;24.10;43.80
48806;DHT22;34625;47.176;27.548;2023-05-10T14:50:46;24.00;43.70
48806;DHT22;34625;47.176;27.548;2023-05-10T14:53:13;24.00;43.70
48806;DHT22;34625;47.176;27.548;2023-05-10T14:55:39;24.00;44.00
48806;DHT22;34625;47.176;27.548;2023-05-10T14:58:05;24.20;46.00
48806;DHT22;34625;47.176;27.548;2023-05-10T15:00:31;24.20;46.30
48806;DHT22;34625;47.176;27.548;2023-05-10T15:02:57;24.30;46.60
48806;DHT22;34625;47.176;27.548;2023-05-10T15:05:23;24.30;46.20
48806;DHT22;34625;47.176;27.548;2023-05-10T15:07:49;24.30;44.80
48806;DHT22;34625;47.176;27.548;2023-05-10T15:10:15;24.30;46.50
48806;DHT22;34625;47.176;27.548;2023-05-10T15:12:41;24.30;44.70
48806;DHT22;34625;47.176;27.548;2023-05-10T15:15:08;24.20;44.60
48806;DHT22;34625;47.176;27.548;2023-05-10T15:17:34;24.10;43.20
48806;DHT22;34625;47.176;27.548;2023-05-10T15:20:01;24.20;44.30
48806;DHT22;34625;47.176;27.548;2023-05-10T15:22:29;24.00;46.60
48806;DHT22;34625;47.176;27.548;2023-05-10T15:24:58;24.00;47.00
48806;DHT22;34625;47.176;27.548;2023-05-10T15:27:25;24.10;46.60
48806;DHT22;34625;47.176;27.548;2023-05-10T15:29:51;24.10;46.50
48806;DHT22;34625;47.176;27.548;2023-05-10T15:32:17;24.00;46.10
48806;DHT22;34625;47.176;27.548;2023-05-10T15:34:43;24.10;46.30
48806;DHT22;34625;47.176;27.548;2023-05-10T15:37:09;24.10;46.40
48806;DHT22;34625;47.176;27.548;2023-05-10T15:39:35;24.00;46.40
48806;DHT22;34625;47.176;27.548;2023-05-10T15:42:01;24.10;46.70
48806;DHT22;34625;47.176;27.548;2023-05-10T15:44:28;24.00;46.60